sensor_id;sensor_type;location;lat;lon;timestamp;P1;durP1;ratioP1;P2;durP2;ratioP2
2706;SDS011;7819;48.046;7.642;2023-05-07T00:00:50;3.00;;;2.67;;
2706;SDS011;7819;48.046;7.642;2023-05-07T00:03:16;3.90;;;3.50;;
2706;SDS011;7819;48.046;7.642;2023-05-07T00:05:41;3.80;;;2.80;;
2706;SDS011;7819;48.046;7.642;2023-05-07T00:08:06;3.10;;;2.43;;
2706;SDS011;7819;48.046;7.642;2023-05-07T00:10:31;3.87;;;2.60;;
2706;SDS011;7819;48.046;7.642;2023-05-07T00:12:56;3.97;;;2.80;;
2706;SDS011;7819;48.046;7.642;2023-05-07T00:15:22;2.63;;;2.33;;
2706;SDS011;7819;48.046;7.642;2023-05-07T00:17:47;4.33;;;3.17;;
2706;SDS011;7819;48.046;7.642;2023-05-07T00:20:12;3.70;;;3.13;;
2706;SDS011;7819;48.046;7.642;2023-05-07T00:22:37;7.00;;;2.93;;
2706;SDS011;7819;48.046;7.642;2023-05-07T00:25:03;3.60;;;2.67;;
2706;SDS011;7819;48.046;7.642;2023-05-07T00:27:28;4.63;;;3.13;;
2706;SDS011;7819;48.046;7.642;2023-05-07T00:29:53;2.40;;;2.20;;
2706;SDS011;7819;48.046;7.642;2023-05-07T00:32:18;3.03;;;2.83;;
2706;SDS011;7819;48.046;7.642;2023-05-07T00:34:43;2.97;;;2.67;;
2706;SDS011;7819;48.046;7.642;2023-05-07T00:37:08;3.00;;;2.70;;
2706;SDS011;7819;48.046;7.642;2023-05-07T00:39:34;2.50;;;2.30;;
2706;SDS011;7819;48.046;7.642;2023-05-07T00:41:59;3.33;;;2.57;;
2706;SDS011;7819;48.046;7.642;2023-05-07T00:44:25;3.75;;;3.17;;
2706;SDS011;7819;48.046;7.642;2023-05-07T00:46:51;3.97;;;2.90;;
2706;SDS011;7819;48.046;7.642;2023-05-07T00:49:16;3.70;;;2.80;;
2706;SDS011;7819;48.046;7.642;2023-05-07T00:51:41;2.73;;;2.30;;
2706;SDS011;7819;48.046;7.642;2023-05-07T00:54:07;3.07;;;2.50;;
2706;SDS011;7819;48.046;7.642;2023-05-07T00:56:32;2.93;;;2.60;;
2706;SDS011;7819;48.046;7.642;2023-05-07T00:58:57;5.20;;;2.97;;
2706;SDS011;7819;48.046;7.642;2023-05-07T01:01:23;2.87;;;2.67;;
2706;SDS011;7819;48.046;7.642;2023-05-07T01:03:48;3.73;;;3.00;;
2706;SDS011;7819;48.046;7.642;2023-05-07T01:06:13;3.40;;;2.67;;
2706;SDS011;7819;48.046;7.642;2023-05-07T01:08:41;4.53;;;2.70;;
2706;SDS011;7819;48.046;7.642;2023-05-07T01:11:07;5.47;;;2.73;;
2706;SDS011;7819;48.046;7.642;2023-05-07T01:13:32;5.40;;;2.43;;
2706;SDS011;7819;48.046;7.642;2023-05-07T01:15:58;2.60;;;2.40;;
2706;SDS011;7819;48.046;7.642;2023-05-07T01:18:23;3.80;;;2.80;;
2706;SDS011;7819;48.046;7.642;2023-05-07T01:20:48;4.03;;;2.83;;
2706;SDS011;7819;48.046;7.642;2023-05-07T01:23:14;3.23;;;2.93;;
2706;SDS011;7819;48.046;7.642;2023-05-07T01:25:40;4.00;;;3.27;;
2706;SDS011;7819;48.046;7.642;2023-05-07T01:28:05;4.07;;;2.63;;
2706;SDS011;7819;48.046;7.642;2023-05-07T01:30:30;3.17;;;2.90;;
2706;SDS011;7819;48.046;7.642;2023-05-07T01:33:02;4.90;;;2.87;;
2706;SDS011;7819;48.046;7.642;2023-05-07T01:35:30;4.30;;;2.60;;
2706;SDS011;7819;48.046;7.642;2023-05-07T01:37:57;3.03;;;2.70;;
2706;SDS011;7819;48.046;7.642;2023-05-07T01:40:22;2.83;;;2.63;;
2706;SDS011;7819;48.046;7.642;2023-05-07T01:42:48;3.10;;;2.80;;
2706;SDS011;7819;48.046;7.642;2023-05-07T01:45:13;2.97;;;2.37;;
2706;SDS011;7819;48.046;7.642;2023-05-07T01:47:39;3.20;;;2.90;;
2706;SDS011;7819;48.046;7.642;2023-05-07T01:50:07;3.03;;;2.80;;
2706;SDS011;7819;48.046;7.642;2023-05-07T01:52:34;3.30;;;3.00;;
2706;SDS011;7819;48.046;7.642;2023-05-07T01:54:59;3.13;;;2.83;;
2706;SDS011;7819;48.046;7.642;2023-05-07T01:57:24;3.60;;;3.30;;
2706;SDS011;7819;48.046;7.642;2023-05-07T01:59:50;3.47;;;3.10;;
2706;SDS011;7819;48.046;7.642;2023-05-07T02:02:15;5.27;;;3.53;;
2706;SDS011;7819;48.046;7.642;2023-05-07T02:04:40;3.80;;;3.40;;
2706;SDS011;7819;48.046;7.642;2023-05-07T02:07:05;3.63;;;3.30;;
2706;SDS011;7819;48.046;7.642;2023-05-07T02:09:31;3.90;;;3.20;;
2706;SDS011;7819;48.046;7.642;2023-05-07T02:11:56;4.30;;;3.40;;
2706;SDS011;7819;48.046;7.642;2023-05-07T02:14:21;4.13;;;3.80;;
2706;SDS011;7819;48.046;7.642;2023-05-07T02:16:46;3.50;;;3.30;;
2706;SDS011;7819;48.046;7.642;2023-05-07T02:19:11;3.03;;;2.83;;
2706;SDS011;7819;48.046;7.642;2023-05-07T02:21:36;2.83;;;2.53;;
2706;SDS011;7819;48.046;7.642;2023-05-07T02:24:02;4.03;;;3.37;;
2706;SDS011;7819;48.046;7.642;2023-05-07T02:26:27;4.07;;;3.53;;
2706;SDS011;7819;48.046;7.642;2023-05-07T02:28:52;3.70;;;3.40;;
2706;SDS011;7819;48.046;7.642;2023-05-07T02:31:18;3.27;;;2.97;;
2706;SDS011;7819;48.046;7.642;2023-05-07T02:33:43;3.13;;;2.83;;
2706;SDS011;7819;48.046;7.642;2023-05-07T02:36:10;3.20;;;2.90;;
2706;SDS011;7819;48.046;7.642;2023-05-07T02:38:35;3.90;;;3.50;;
2706;SDS011;7819;48.046;7.642;2023-05-07T02:41:01;3.57;;;3.27;;
2706;SDS011;7819;48.046;7.642;2023-05-07T02:43:26;4.07;;;3.00;;
2706;SDS011;7819;48.046;7.642;2023-05-07T02:46:04;3.83;;;3.43;;
2706;SDS011;7819;48.046;7.642;2023-05-07T02:48:30;3.53;;;3.23;;
2706;SDS011;7819;48.046;7.642;2023-05-07T02:50:55;3.67;;;3.30;;
2706;SDS011;7819;48.046;7.642;2023-05-07T02:53:20;3.40;;;3.10;;
2706;SDS011;7819;48.046;7.642;2023-05-07T02:55:45;3.87;;;3.57;;
2706;SDS011;7819;48.046;7.642;2023-05-07T02:58:11;4.27;;;2.97;;
2706;SDS011;7819;48.046;7.642;2023-05-07T03:00:36;6.30;;;4.20;;
2706;SDS011;7819;48.046;7.642;2023-05-07T03:03:01;4.80;;;3.60;;
2706;SDS011;7819;48.046;7.642;2023-05-07T03:05:26;4.20;;;3.80;;
2706;SDS011;7819;48.046;7.642;2023-05-07T03:07:51;4.13;;;3.13;;
2706;SDS011;7819;48.046;7.642;2023-05-07T03:10:17;3.80;;;3.50;;
2706;SDS011;7819;48.046;7.642;2023-05-07T03:12:43;5.03;;;3.57;;
2706;SDS011;7819;48.046;7.642;2023-05-07T03:15:08;5.60;;;3.80;;
2706;SDS011;7819;48.046;7.642;2023-05-07T03:17:34;4.63;;;4.23;;
2706;SDS011;7819;48.046;7.642;2023-05-07T03:19:59;4.07;;;3.77;;
2706;SDS011;7819;48.046;7.642;2023-05-07T03:22:24;4.10;;;3.70;;
2706;SDS011;7819;48.046;7.642;2023-05-07T03:24:49;3.80;;;3.50;;
2706;SDS011;7819;48.046;7.642;2023-05-07T03:27:15;3.80;;;3.50;;
2706;SDS011;7819;48.046;7.642;2023-05-07T03:29:40;4.33;;;3.37;;
2706;SDS011;7819;48.046;7.642;2023-05-07T03:32:05;6.33;;;3.87;;
2706;SDS011;7819;48.046;7.642;2023-05-07T03:34:30;4.00;;;3.60;;
2706;SDS011;7819;48.046;7.642;2023-05-07T03:36:56;3.97;;;3.50;;
2706;SDS011;7819;48.046;7.642;2023-05-07T03:39:21;3.03;;;2.83;;
2706;SDS011;7819;48.046;7.642;2023-05-07T03:41:46;3.80;;;3.50;;
2706;SDS011;7819;48.046;7.642;2023-05-07T03:44:11;3.50;;;3.20;;
2706;SDS011;7819;48.046;7.642;2023-05-07T03:46:37;3.93;;;3.53;;
2706;SDS011;7819;48.046;7.642;2023-05-07T03:49:02;6.10;;;3.70;;
2706;SDS011;7819;48.046;7.642;2023-05-07T03:51:27;3.60;;;3.27;;
2706;SDS011;7819;48.046;7.642;2023-05-07T03:53:52;3.93;;;3.57;;
2706;SDS011;7819;48.046;7.642;2023-05-07T03:56:18;4.13;;;3.73;;
2706;SDS011;7819;48.046;7.642;2023-05-07T03:58:43;4.67;;;4.07;;
2706;SDS011;7819;48.046;7.642;2023-05-07T04:01:08;4.20;;;3.77;;
2706;SDS011;7819;48.046;7.642;2023-05-07T04:03:34;5.00;;;3.13;;
2706;SDS011;7819;48.046;7.642;2023-05-07T04:05:59;4.03;;;3.63;;
2706;SDS011;7819;48.046;7.642;2023-05-07T04:08:25;3.80;;;3.50;;
2706;SDS011;7819;48.046;7.642;2023-05-07T04:10:59;3.83;;;3.53;;
2706;SDS011;7819;48.046;7.642;2023-05-07T04:13:25;4.10;;;3.70;;
2706;SDS011;7819;48.046;7.642;2023-05-07T04:15:54;3.70;;;3.40;;
2706;SDS011;7819;48.046;7.642;2023-05-07T04:18:20;4.00;;;3.63;;
2706;SDS011;7819;48.046;7.642;2023-05-07T04:20:45;4.43;;;4.03;;
2706;SDS011;7819;48.046;7.642;2023-05-07T04:23:10;4.13;;;3.73;;
2706;SDS011;7819;48.046;7.642;2023-05-07T04:25:36;4.37;;;3.97;;
2706;SDS011;7819;48.046;7.642;2023-05-07T04:28:01;4.00;;;3.70;;
2706;SDS011;7819;48.046;7.642;2023-05-07T04:30:26;3.93;;;3.60;;
2706;SDS011;7819;48.046;7.642;2023-05-07T04:32:51;4.10;;;3.70;;
2706;SDS011;7819;48.046;7.642;2023-05-07T04:35:17;3.93;;;3.63;;
2706;SDS011;7819;48.046;7.642;2023-05-07T04:37:43;3.77;;;3.20;;
2706;SDS011;7819;48.046;7.642;2023-05-07T04:40:08;4.40;;;4.00;;
2706;SDS011;7819;48.046;7.642;2023-05-07T04:42:33;3.97;;;3.50;;
2706;SDS011;7819;48.046;7.642;2023-05-07T04:44:58;4.43;;;4.13;;
2706;SDS011;7819;48.046;7.642;2023-05-07T04:47:24;5.03;;;4.20;;
2706;SDS011;7819;48.046;7.642;2023-05-07T04:49:49;5.20;;;4.20;;
2706;SDS011;7819;48.046;7.642;2023-05-07T04:52:14;4.33;;;4.00;;
2706;SDS011;7819;48.046;7.642;2023-05-07T04:54:40;4.13;;;3.73;;
2706;SDS011;7819;48.046;7.642;2023-05-07T04:57:05;5.70;;;4.70;;
2706;SDS011;7819;48.046;7.642;2023-05-07T04:59:31;3.90;;;3.60;;
2706;SDS011;7819;48.046;7.642;2023-05-07T05:01:56;4.13;;;3.73;;
2706;SDS011;7819;48.046;7.642;2023-05-07T05:04:22;3.93;;;3.63;;
2706;SDS011;7819;48.046;7.642;2023-05-07T05:06:47;4.10;;;3.70;;
2706;SDS011;7819;48.046;7.642;2023-05-07T05:09:12;3.90;;;3.50;;
2706;SDS011;7819;48.046;7.642;2023-05-07T05:11:38;3.73;;;3.43;;
2706;SDS011;7819;48.046;7.642;2023-05-07T05:14:03;5.80;;;3.80;;
2706;SDS011;7819;48.046;7.642;2023-05-07T05:16:28;5.40;;;4.47;;
2706;SDS011;7819;48.046;7.642;2023-05-07T05:18:54;6.73;;;4.60;;
2706;SDS011;7819;48.046;7.642;2023-05-07T05:21:19;3.77;;;3.47;;
2706;SDS011;7819;48.046;7.642;2023-05-07T05:23:45;4.10;;;3.80;;
2706;SDS011;7819;48.046;7.642;2023-05-07T05:26:10;4.60;;;4.20;;
2706;SDS011;7819;48.046;7.642;2023-05-07T05:28:35;4.40;;;4.00;;
2706;SDS011;7819;48.046;7.642;2023-05-07T05:31:01;4.40;;;4.00;;
2706;SDS011;7819;48.046;7.642;2023-05-07T05:33:26;5.83;;;3.97;;
2706;SDS011;7819;48.046;7.642;2023-05-07T05:35:51;5.33;;;4.20;;
2706;SDS011;7819;48.046;7.642;2023-05-07T05:38:16;4.10;;;3.80;;
2706;SDS011;7819;48.046;7.642;2023-05-07T05:40:42;4.67;;;4.27;;
2706;SDS011;7819;48.046;7.642;2023-05-07T05:43:07;4.50;;;4.10;;
2706;SDS011;7819;48.046;7.642;2023-05-07T05:45:32;5.00;;;4.50;;
2706;SDS011;7819;48.046;7.642;2023-05-07T05:47:57;5.10;;;4.70;;
2706;SDS011;7819;48.046;7.642;2023-05-07T05:50:22;4.63;;;4.23;;
2706;SDS011;7819;48.046;7.642;2023-05-07T05:52:48;4.10;;;3.80;;
2706;SDS011;7819;48.046;7.642;2023-05-07T05:55:13;4.40;;;4.00;;
2706;SDS011;7819;48.046;7.642;2023-05-07T05:57:39;4.80;;;4.40;;
2706;SDS011;7819;48.046;7.642;2023-05-07T06:00:05;5.37;;;4.23;;
2706;SDS011;7819;48.046;7.642;2023-05-07T06:02:31;6.23;;;5.53;;
2706;SDS011;7819;48.046;7.642;2023-05-07T06:04:56;4.70;;;4.30;;
2706;SDS011;7819;48.046;7.642;2023-05-07T06:07:21;6.17;;;5.53;;
2706;SDS011;7819;48.046;7.642;2023-05-07T06:09:46;5.70;;;4.60;;
2706;SDS011;7819;48.046;7.642;2023-05-07T06:12:12;6.13;;;4.40;;
2706;SDS011;7819;48.046;7.642;2023-05-07T06:14:37;5.20;;;4.67;;
2706;SDS011;7819;48.046;7.642;2023-05-07T06:17:02;4.40;;;3.87;;
2706;SDS011;7819;48.046;7.642;2023-05-07T06:19:27;5.07;;;4.60;;
2706;SDS011;7819;48.046;7.642;2023-05-07T06:21:53;5.27;;;4.20;;
2706;SDS011;7819;48.046;7.642;2023-05-07T06:24:18;5.50;;;5.07;;
2706;SDS011;7819;48.046;7.642;2023-05-07T06:26:43;6.43;;;4.77;;
2706;SDS011;7819;48.046;7.642;2023-05-07T06:29:08;5.73;;;5.20;;
2706;SDS011;7819;48.046;7.642;2023-05-07T06:31:34;5.80;;;4.70;;
2706;SDS011;7819;48.046;7.642;2023-05-07T06:33:59;6.10;;;5.60;;
2706;SDS011;7819;48.046;7.642;2023-05-07T06:36:24;4.73;;;4.33;;
2706;SDS011;7819;48.046;7.642;2023-05-07T06:38:49;5.40;;;5.00;;
2706;SDS011;7819;48.046;7.642;2023-05-07T06:41:15;6.40;;;5.57;;
2706;SDS011;7819;48.046;7.642;2023-05-07T06:43:40;6.83;;;5.10;;
2706;SDS011;7819;48.046;7.642;2023-05-07T06:46:05;7.40;;;5.00;;
2706;SDS011;7819;48.046;7.642;2023-05-07T06:48:30;6.03;;;5.13;;
2706;SDS011;7819;48.046;7.642;2023-05-07T06:50:55;5.17;;;4.67;;
2706;SDS011;7819;48.046;7.642;2023-05-07T06:53:22;5.63;;;5.10;;
2706;SDS011;7819;48.046;7.642;2023-05-07T06:55:47;5.70;;;5.13;;
2706;SDS011;7819;48.046;7.642;2023-05-07T06:58:12;6.47;;;5.03;;
2706;SDS011;7819;48.046;7.642;2023-05-07T07:00:38;5.07;;;4.57;;
2706;SDS011;7819;48.046;7.642;2023-05-07T07:03:03;4.63;;;4.20;;
2706;SDS011;7819;48.046;7.642;2023-05-07T07:05:28;4.73;;;4.10;;
2706;SDS011;7819;48.046;7.642;2023-05-07T07:07:53;4.83;;;3.97;;
2706;SDS011;7819;48.046;7.642;2023-05-07T07:10:19;4.40;;;3.60;;
2706;SDS011;7819;48.046;7.642;2023-05-07T07:12:44;6.00;;;4.10;;
2706;SDS011;7819;48.046;7.642;2023-05-07T07:15:10;5.27;;;4.73;;
2706;SDS011;7819;48.046;7.642;2023-05-07T07:17:35;5.03;;;4.27;;
2706;SDS011;7819;48.046;7.642;2023-05-07T07:20:00;5.40;;;5.00;;
2706;SDS011;7819;48.046;7.642;2023-05-07T07:22:26;5.17;;;4.63;;
2706;SDS011;7819;48.046;7.642;2023-05-07T07:24:51;5.00;;;4.50;;
2706;SDS011;7819;48.046;7.642;2023-05-07T07:27:16;5.37;;;4.97;;
2706;SDS011;7819;48.046;7.642;2023-05-07T07:29:41;5.40;;;4.50;;
2706;SDS011;7819;48.046;7.642;2023-05-07T07:32:06;5.00;;;4.60;;
2706;SDS011;7819;48.046;7.642;2023-05-07T07:34:31;4.67;;;4.27;;
2706;SDS011;7819;48.046;7.642;2023-05-07T07:36:57;6.53;;;4.53;;
2706;SDS011;7819;48.046;7.642;2023-05-07T07:39:22;4.63;;;4.23;;
2706;SDS011;7819;48.046;7.642;2023-05-07T07:41:47;5.63;;;5.07;;
2706;SDS011;7819;48.046;7.642;2023-05-07T07:44:12;5.23;;;4.73;;
2706;SDS011;7819;48.046;7.642;2023-05-07T07:46:38;4.90;;;4.50;;
2706;SDS011;7819;48.046;7.642;2023-05-07T07:49:03;6.00;;;5.40;;
2706;SDS011;7819;48.046;7.642;2023-05-07T07:51:28;5.37;;;4.97;;
2706;SDS011;7819;48.046;7.642;2023-05-07T07:53:53;6.73;;;4.63;;
2706;SDS011;7819;48.046;7.642;2023-05-07T07:56:18;5.50;;;5.10;;
2706;SDS011;7819;48.046;7.642;2023-05-07T07:58:43;4.40;;;4.00;;
2706;SDS011;7819;48.046;7.642;2023-05-07T08:01:09;4.30;;;4.00;;
2706;SDS011;7819;48.046;7.642;2023-05-07T08:03:34;4.10;;;3.80;;
2706;SDS011;7819;48.046;7.642;2023-05-07T08:06:00;4.63;;;4.23;;
2706;SDS011;7819;48.046;7.642;2023-05-07T08:08:25;5.63;;;5.10;;
2706;SDS011;7819;48.046;7.642;2023-05-07T08:10:51;6.20;;;4.47;;
2706;SDS011;7819;48.046;7.642;2023-05-07T08:13:17;4.70;;;4.30;;
2706;SDS011;7819;48.046;7.642;2023-05-07T08:15:42;4.87;;;4.43;;
2706;SDS011;7819;48.046;7.642;2023-05-07T08:18:07;5.60;;;5.10;;
2706;SDS011;7819;48.046;7.642;2023-05-07T08:20:33;5.73;;;5.23;;
2706;SDS011;7819;48.046;7.642;2023-05-07T08:22:58;4.50;;;4.10;;
2706;SDS011;7819;48.046;7.642;2023-05-07T08:25:23;5.60;;;4.67;;
2706;SDS011;7819;48.046;7.642;2023-05-07T08:27:48;6.40;;;4.97;;
2706;SDS011;7819;48.046;7.642;2023-05-07T08:30:14;4.20;;;3.80;;
2706;SDS011;7819;48.046;7.642;2023-05-07T08:32:39;5.27;;;4.77;;
2706;SDS011;7819;48.046;7.642;2023-05-07T08:35:04;4.80;;;4.40;;
2706;SDS011;7819;48.046;7.642;2023-05-07T08:37:30;5.10;;;3.87;;
2706;SDS011;7819;48.046;7.642;2023-05-07T08:39:55;4.30;;;3.90;;
2706;SDS011;7819;48.046;7.642;2023-05-07T08:42:20;4.20;;;3.90;;
2706;SDS011;7819;48.046;7.642;2023-05-07T08:44:47;5.30;;;3.97;;
2706;SDS011;7819;48.046;7.642;2023-05-07T08:47:13;5.00;;;4.53;;
2706;SDS011;7819;48.046;7.642;2023-05-07T08:49:39;6.40;;;4.60;;
2706;SDS011;7819;48.046;7.642;2023-05-07T08:52:04;4.97;;;4.53;;
2706;SDS011;7819;48.046;7.642;2023-05-07T08:54:30;5.20;;;4.70;;
2706;SDS011;7819;48.046;7.642;2023-05-07T08:56:56;6.00;;;4.60;;
2706;SDS011;7819;48.046;7.642;2023-05-07T08:59:21;5.30;;;4.47;;
2706;SDS011;7819;48.046;7.642;2023-05-07T09:01:46;6.60;;;5.47;;
2706;SDS011;7819;48.046;7.642;2023-05-07T09:04:11;5.30;;;4.90;;
2706;SDS011;7819;48.046;7.642;2023-05-07T09:06:37;5.03;;;4.00;;
2706;SDS011;7819;48.046;7.642;2023-05-07T09:09:06;5.10;;;3.70;;
2706;SDS011;7819;48.046;7.642;2023-05-07T09:11:32;4.47;;;4.03;;
2706;SDS011;7819;48.046;7.642;2023-05-07T09:13:57;4.43;;;4.03;;
2706;SDS011;7819;48.046;7.642;2023-05-07T09:16:24;5.30;;;4.80;;
2706;SDS011;7819;48.046;7.642;2023-05-07T09:18:53;5.80;;;5.20;;
2706;SDS011;7819;48.046;7.642;2023-05-07T09:21:19;5.03;;;4.53;;
2706;SDS011;7819;48.046;7.642;2023-05-07T09:23:45;5.40;;;4.60;;
2706;SDS011;7819;48.046;7.642;2023-05-07T09:26:10;5.00;;;4.60;;
2706;SDS011;7819;48.046;7.642;2023-05-07T09:28:39;6.77;;;5.10;;
2706;SDS011;7819;48.046;7.642;2023-05-07T09:31:05;4.80;;;4.50;;
2706;SDS011;7819;48.046;7.642;2023-05-07T09:33:30;5.27;;;4.53;;
2706;SDS011;7819;48.046;7.642;2023-05-07T09:35:55;5.43;;;4.93;;
2706;SDS011;7819;48.046;7.642;2023-05-07T09:38:21;4.90;;;4.40;;
2706;SDS011;7819;48.046;7.642;2023-05-07T09:40:46;5.03;;;4.23;;
2706;SDS011;7819;48.046;7.642;2023-05-07T09:43:13;5.40;;;4.83;;
2706;SDS011;7819;48.046;7.642;2023-05-07T09:45:38;5.07;;;4.60;;
2706;SDS011;7819;48.046;7.642;2023-05-07T09:48:04;5.53;;;4.90;;
2706;SDS011;7819;48.046;7.642;2023-05-07T09:50:35;5.70;;;4.30;;
2706;SDS011;7819;48.046;7.642;2023-05-07T09:53:01;5.57;;;4.27;;
2706;SDS011;7819;48.046;7.642;2023-05-07T09:55:26;3.93;;;3.40;;
2706;SDS011;7819;48.046;7.642;2023-05-07T09:57:52;5.00;;;3.13;;
2706;SDS011;7819;48.046;7.642;2023-05-07T10:00:21;3.60;;;3.30;;
2706;SDS011;7819;48.046;7.642;2023-05-07T10:02:50;3.40;;;3.10;;
2706;SDS011;7819;48.046;7.642;2023-05-07T10:05:17;3.80;;;3.17;;
2706;SDS011;7819;48.046;7.642;2023-05-07T10:07:42;4.17;;;3.03;;
2706;SDS011;7819;48.046;7.642;2023-05-07T10:10:08;4.07;;;3.37;;
2706;SDS011;7819;48.046;7.642;2023-05-07T10:12:34;5.33;;;3.80;;
2706;SDS011;7819;48.046;7.642;2023-05-07T10:15:05;5.00;;;3.60;;
2706;SDS011;7819;48.046;7.642;2023-05-07T10:17:31;4.80;;;3.60;;
2706;SDS011;7819;48.046;7.642;2023-05-07T10:19:56;3.50;;;3.20;;
2706;SDS011;7819;48.046;7.642;2023-05-07T10:22:22;3.93;;;3.50;;
2706;SDS011;7819;48.046;7.642;2023-05-07T10:24:47;4.47;;;4.07;;
2706;SDS011;7819;48.046;7.642;2023-05-07T10:27:13;4.10;;;3.73;;
2706;SDS011;7819;48.046;7.642;2023-05-07T10:32:19;4.33;;;3.93;;
2706;SDS011;7819;48.046;7.642;2023-05-07T10:34:50;3.33;;;3.00;;
2706;SDS011;7819;48.046;7.642;2023-05-07T10:37:16;3.60;;;3.03;;
2706;SDS011;7819;48.046;7.642;2023-05-07T10:39:41;5.43;;;3.90;;
2706;SDS011;7819;48.046;7.642;2023-05-07T10:42:07;4.70;;;3.63;;
2706;SDS011;7819;48.046;7.642;2023-05-07T10:44:32;4.40;;;3.33;;
2706;SDS011;7819;48.046;7.642;2023-05-07T10:47:04;3.57;;;3.33;;
2706;SDS011;7819;48.046;7.642;2023-05-07T10:49:30;4.27;;;3.87;;
2706;SDS011;7819;48.046;7.642;2023-05-07T10:52:11;5.83;;;4.00;;
2706;SDS011;7819;48.046;7.642;2023-05-07T10:54:36;4.37;;;4.00;;
2706;SDS011;7819;48.046;7.642;2023-05-07T10:57:31;5.90;;;4.83;;
2706;SDS011;7819;48.046;7.642;2023-05-07T10:59:46;4.60;;;4.20;;
2706;SDS011;7819;48.046;7.642;2023-05-07T11:02:12;5.43;;;4.17;;
2706;SDS011;7819;48.046;7.642;2023-05-07T11:04:39;4.90;;;4.20;;
2706;SDS011;7819;48.046;7.642;2023-05-07T11:15:01;4.80;;;4.40;;
2706;SDS011;7819;48.046;7.642;2023-05-07T11:17:26;5.03;;;4.50;;
2706;SDS011;7819;48.046;7.642;2023-05-07T11:19:55;4.73;;;4.20;;
2706;SDS011;7819;48.046;7.642;2023-05-07T11:24:55;4.83;;;4.17;;
2706;SDS011;7819;48.046;7.642;2023-05-07T11:27:23;6.07;;;4.20;;
2706;SDS011;7819;48.046;7.642;2023-05-07T11:29:49;5.60;;;5.13;;
2706;SDS011;7819;48.046;7.642;2023-05-07T11:32:15;5.23;;;4.30;;
2706;SDS011;7819;48.046;7.642;2023-05-07T11:34:40;4.50;;;4.10;;
2706;SDS011;7819;48.046;7.642;2023-05-07T11:37:05;4.97;;;4.47;;
2706;SDS011;7819;48.046;7.642;2023-05-07T11:39:31;4.80;;;4.40;;
2706;SDS011;7819;48.046;7.642;2023-05-07T11:41:58;7.23;;;3.87;;
2706;SDS011;7819;48.046;7.642;2023-05-07T11:44:23;4.07;;;3.67;;
2706;SDS011;7819;48.046;7.642;2023-05-07T11:46:48;4.07;;;3.67;;
2706;SDS011;7819;48.046;7.642;2023-05-07T11:49:13;4.33;;;4.00;;
2706;SDS011;7819;48.046;7.642;2023-05-07T11:51:39;4.47;;;4.10;;
2706;SDS011;7819;48.046;7.642;2023-05-07T11:54:04;5.17;;;4.67;;
2706;SDS011;7819;48.046;7.642;2023-05-07T11:56:34;4.60;;;4.20;;
2706;SDS011;7819;48.046;7.642;2023-05-07T11:58:59;6.97;;;4.73;;
2706;SDS011;7819;48.046;7.642;2023-05-07T12:01:24;4.70;;;4.30;;
2706;SDS011;7819;48.046;7.642;2023-05-07T12:03:49;4.57;;;4.17;;
2706;SDS011;7819;48.046;7.642;2023-05-07T12:06:15;4.30;;;3.90;;
2706;SDS011;7819;48.046;7.642;2023-05-07T12:08:41;4.80;;;3.73;;
2706;SDS011;7819;48.046;7.642;2023-05-07T12:11:07;4.80;;;4.50;;
2706;SDS011;7819;48.046;7.642;2023-05-07T12:13:33;6.23;;;5.00;;
2706;SDS011;7819;48.046;7.642;2023-05-07T12:15:58;4.77;;;4.37;;
2706;SDS011;7819;48.046;7.642;2023-05-07T12:18:24;4.93;;;4.50;;
2706;SDS011;7819;48.046;7.642;2023-05-07T12:20:49;5.30;;;4.60;;
2706;SDS011;7819;48.046;7.642;2023-05-07T12:23:15;4.97;;;4.47;;
2706;SDS011;7819;48.046;7.642;2023-05-07T12:25:41;4.57;;;4.17;;
2706;SDS011;7819;48.046;7.642;2023-05-07T12:28:18;4.53;;;3.40;;
2706;SDS011;7819;48.046;7.642;2023-05-07T12:30:45;5.63;;;3.53;;
2706;SDS011;7819;48.046;7.642;2023-05-07T12:33:10;3.20;;;3.00;;
2706;SDS011;7819;48.046;7.642;2023-05-07T12:35:37;4.07;;;3.43;;
2706;SDS011;7819;48.046;7.642;2023-05-07T12:38:04;4.03;;;3.67;;
2706;SDS011;7819;48.046;7.642;2023-05-07T12:40:36;2.00;;;1.80;;
2706;SDS011;7819;48.046;7.642;2023-05-07T12:43:01;3.30;;;2.13;;
2706;SDS011;7819;48.046;7.642;2023-05-07T12:45:26;1.70;;;1.30;;
2706;SDS011;7819;48.046;7.642;2023-05-07T12:47:52;1.37;;;0.97;;
2706;SDS011;7819;48.046;7.642;2023-05-07T12:50:17;1.57;;;1.17;;
2706;SDS011;7819;48.046;7.642;2023-05-07T12:52:45;1.70;;;1.30;;
2706;SDS011;7819;48.046;7.642;2023-05-07T12:55:12;1.10;;;0.90;;
2706;SDS011;7819;48.046;7.642;2023-05-07T12:57:42;1.30;;;0.90;;
2706;SDS011;7819;48.046;7.642;2023-05-07T13:00:07;1.70;;;1.60;;
2706;SDS011;7819;48.046;7.642;2023-05-07T13:02:34;1.40;;;1.17;;
2706;SDS011;7819;48.046;7.642;2023-05-07T13:05:00;1.07;;;0.73;;
2706;SDS011;7819;48.046;7.642;2023-05-07T13:07:25;1.13;;;0.80;;
2706;SDS011;7819;48.046;7.642;2023-05-07T13:09:51;1.30;;;1.20;;
2706;SDS011;7819;48.046;7.642;2023-05-07T13:12:16;1.80;;;1.30;;
2706;SDS011;7819;48.046;7.642;2023-05-07T13:14:41;1.77;;;1.20;;
2706;SDS011;7819;48.046;7.642;2023-05-07T13:17:06;2.40;;;1.60;;
2706;SDS011;7819;48.046;7.642;2023-05-07T13:19:31;3.33;;;2.53;;
2706;SDS011;7819;48.046;7.642;2023-05-07T13:21:56;5.53;;;2.50;;
2706;SDS011;7819;48.046;7.642;2023-05-07T13:24:22;3.10;;;2.43;;
2706;SDS011;7819;48.046;7.642;2023-05-07T13:26:47;3.20;;;2.53;;
2706;SDS011;7819;48.046;7.642;2023-05-07T13:29:12;2.90;;;2.00;;
2706;SDS011;7819;48.046;7.642;2023-05-07T13:31:37;3.20;;;2.80;;
2706;SDS011;7819;48.046;7.642;2023-05-07T13:34:07;4.83;;;2.70;;
2706;SDS011;7819;48.046;7.642;2023-05-07T13:36:32;3.40;;;2.57;;
2706;SDS011;7819;48.046;7.642;2023-05-07T13:39:00;5.40;;;2.83;;
2706;SDS011;7819;48.046;7.642;2023-05-07T13:41:25;4.07;;;3.77;;
2706;SDS011;7819;48.046;7.642;2023-05-07T13:43:50;3.17;;;2.40;;
2706;SDS011;7819;48.046;7.642;2023-05-07T13:46:16;3.60;;;2.50;;
2706;SDS011;7819;48.046;7.642;2023-05-07T13:48:41;2.20;;;2.00;;
2706;SDS011;7819;48.046;7.642;2023-05-07T13:51:06;2.90;;;2.70;;
2706;SDS011;7819;48.046;7.642;2023-05-07T13:53:31;2.30;;;1.73;;
2706;SDS011;7819;48.046;7.642;2023-05-07T13:55:57;3.60;;;2.13;;
2706;SDS011;7819;48.046;7.642;2023-05-07T13:58:22;2.77;;;2.07;;
2706;SDS011;7819;48.046;7.642;2023-05-07T14:00:47;2.10;;;1.70;;
2706;SDS011;7819;48.046;7.642;2023-05-07T14:03:12;1.53;;;1.30;;
2706;SDS011;7819;48.046;7.642;2023-05-07T14:05:37;1.93;;;1.53;;
2706;SDS011;7819;48.046;7.642;2023-05-07T14:08:03;1.90;;;1.73;;
2706;SDS011;7819;48.046;7.642;2023-05-07T14:10:29;3.33;;;1.90;;
2706;SDS011;7819;48.046;7.642;2023-05-07T14:12:55;1.60;;;1.40;;
2706;SDS011;7819;48.046;7.642;2023-05-07T14:15:20;2.43;;;1.60;;
2706;SDS011;7819;48.046;7.642;2023-05-07T14:17:45;1.60;;;1.50;;
2706;SDS011;7819;48.046;7.642;2023-05-07T14:20:12;3.80;;;1.93;;
2706;SDS011;7819;48.046;7.642;2023-05-07T14:22:37;2.30;;;1.20;;
2706;SDS011;7819;48.046;7.642;2023-05-07T14:25:02;1.90;;;1.10;;
2706;SDS011;7819;48.046;7.642;2023-05-07T14:27:27;2.17;;;1.60;;
2706;SDS011;7819;48.046;7.642;2023-05-07T14:29:53;1.20;;;0.80;;
2706;SDS011;7819;48.046;7.642;2023-05-07T14:32:18;1.57;;;1.07;;
2706;SDS011;7819;48.046;7.642;2023-05-07T14:34:43;1.30;;;1.10;;
2706;SDS011;7819;48.046;7.642;2023-05-07T14:37:08;1.57;;;1.10;;
2706;SDS011;7819;48.046;7.642;2023-05-07T14:39:34;1.00;;;0.63;;
2706;SDS011;7819;48.046;7.642;2023-05-07T14:41:59;1.07;;;0.80;;
2706;SDS011;7819;48.046;7.642;2023-05-07T14:44:24;1.20;;;0.70;;
2706;SDS011;7819;48.046;7.642;2023-05-07T14:46:49;1.20;;;0.77;;
2706;SDS011;7819;48.046;7.642;2023-05-07T14:49:14;1.10;;;0.90;;
2706;SDS011;7819;48.046;7.642;2023-05-07T14:51:45;1.40;;;1.00;;
2706;SDS011;7819;48.046;7.642;2023-05-07T14:54:10;1.20;;;1.07;;
2706;SDS011;7819;48.046;7.642;2023-05-07T14:56:36;1.70;;;0.90;;
2706;SDS011;7819;48.046;7.642;2023-05-07T14:59:02;1.50;;;1.00;;
2706;SDS011;7819;48.046;7.642;2023-05-07T15:01:27;1.40;;;0.90;;
2706;SDS011;7819;48.046;7.642;2023-05-07T15:03:53;1.27;;;0.83;;
2706;SDS011;7819;48.046;7.642;2023-05-07T15:06:18;6.30;;;0.80;;
2706;SDS011;7819;48.046;7.642;2023-05-07T15:08:43;1.00;;;0.67;;
2706;SDS011;7819;48.046;7.642;2023-05-07T15:11:08;1.37;;;0.70;;
2706;SDS011;7819;48.046;7.642;2023-05-07T15:13:33;0.80;;;0.50;;
2706;SDS011;7819;48.046;7.642;2023-05-07T15:15:58;1.20;;;0.60;;
2706;SDS011;7819;48.046;7.642;2023-05-07T15:18:24;1.03;;;0.73;;